sensor_id;sensor_type;location;lat;lon;timestamp;temperature;humidity
11538;DHT22;50159;49.426;11.182;2023-02-28T00:01:30;-2.70;97.80
11538;DHT22;50159;49.426;11.182;2023-02-28T00:03:58;-2.60;98.20
11538;DHT22;50159;49.426;11.182;2023-02-28T00:06:25;-2.70;98.00
11538;DHT22;50159;49.426;11.182;2023-02-28T00:08:52;-2.70;98.30
11538;DHT22;50159;49.426;11.182;2023-02-28T00:11:18;-2.70;98.60
11538;DHT22;50159;49.426;11.182;2023-02-28T00:13:47;-2.70;98.80
11538;DHT22;50159;49.426;11.182;2023-02-28T00:16:20;-2.70;98.90
11538;DHT22;50159;49.426;11.182;2023-02-28T00:18:48;-2.70;99.20
11538;DHT22;50159;49.426;11.182;2023-02-28T00:21:16;-2.70;99.40
11538;DHT22;50159;49.426;11.182;2023-02-28T00:23:44;-2.70;99.50
11538;DHT22;50159;49.426;11.182;2023-02-28T00:26:11;-2.70;99.60
11538;DHT22;50159;49.426;11.182;2023-02-28T00:28:38;-2.70;99.90
11538;DHT22;50159;49.426;11.182;2023-02-28T00:31:05;-2.70;99.90
11538;DHT22;50159;49.426;11.182;2023-02-28T00:33:32;-2.80;99.90
11538;DHT22;50159;49.426;11.182;2023-02-28T00:36:07;-2.80;99.90
11538;DHT22;50159;49.426;11.182;2023-02-28T00:38:37;-2.80;99.90
11538;DHT22;50159;49.426;11.182;2023-02-28T00:41:05;-2.80;99.90
11538;DHT22;50159;49.426;11.182;2023-02-28T00:43:33;-2.80;99.90
11538;DHT22;50159;49.426;11.182;2023-02-28T00:46:01;-2.80;99.90
11538;DHT22;50159;49.426;11.182;2023-02-28T00:48:29;-2.70;99.90
11538;DHT22;50159;49.426;11.182;2023-02-28T00:50:56;-2.80;99.90
11538;DHT22;50159;49.426;11.182;2023-02-28T00:53:23;-2.70;99.90
11538;DHT22;50159;49.426;11.182;2023-02-28T00:55:50;-2.80;99.90
11538;DHT22;50159;49.426;11.182;2023-02-28T00:58:17;-2.70;99.90
11538;DHT22;50159;49.426;11.182;2023-02-28T01:00:44;-2.80;99.90
11538;DHT22;50159;49.426;11.182;2023-02-28T01:03:16;-2.80;99.90
11538;DHT22;50159;49.426;11.182;2023-02-28T01:05:45;-2.80;99.90
11538;DHT22;50159;49.426;11.182;2023-02-28T01:08:13;-2.80;99.90
11538;DHT22;50159;49.426;11.182;2023-02-28T01:10:41;-2.80;99.90
11538;DHT22;50159;49.426;11.182;2023-02-28T01:13:09;-2.70;99.90
11538;DHT22;50159;49.426;11.182;2023-02-28T01:15:36;-2.70;99.90
11538;DHT22;50159;49.426;11.182;2023-02-28T01:18:03;-2.70;99.90
11538;DHT22;50159;49.426;11.182;2023-02-28T01:20:29;-2.50;99.90
11538;DHT22;50159;49.426;11.182;2023-02-28T01:22:57;-2.80;99.90
11538;DHT22;50159;49.426;11.182;2023-02-28T01:25:24;-2.80;99.90
11538;DHT22;50159;49.426;11.182;2023-02-28T01:27:50;-2.80;99.90
11538;DHT22;50159;49.426;11.182;2023-02-28T01:30:18;-2.80;99.90
11538;DHT22;50159;49.426;11.182;2023-02-28T01:32:45;-2.80;99.90
11538;DHT22;50159;49.426;11.182;2023-02-28T01:35:12;-2.80;99.90
11538;DHT22;50159;49.426;11.182;2023-02-28T01:37:38;-2.80;99.90
11538;DHT22;50159;49.426;11.182;2023-02-28T01:40:06;-2.80;99.90
11538;DHT22;50159;49.426;11.182;2023-02-28T01:42:33;-2.80;99.90
11538;DHT22;50159;49.426;11.182;2023-02-28T01:48:05;-2.80;99.90
11538;DHT22;50159;49.426;11.182;2023-02-28T01:50:39;-2.80;99.90
11538;DHT22;50159;49.426;11.182;2023-02-28T01:53:14;-2.80;99.90
11538;DHT22;50159;49.426;11.182;2023-02-28T01:55:47;-2.80;99.90
11538;DHT22;50159;49.426;11.182;2023-02-28T01:58:17;-2.90;99.90
11538;DHT22;50159;49.426;11.182;2023-02-28T02:00:44;-2.80;99.90
11538;DHT22;50159;49.426;11.182;2023-02-28T02:03:14;-2.90;99.90
11538;DHT22;50159;49.426;11.182;2023-02-28T02:05:45;-2.90;99.90
11538;DHT22;50159;49.426;11.182;2023-02-28T02:08:19;-2.90;99.90
11538;DHT22;50159;49.426;11.182;2023-02-28T02:10:56;-2.80;99.90
11538;DHT22;50159;49.426;11.182;2023-02-28T02:16:25;-2.80;99.90
11538;DHT22;50159;49.426;11.182;2023-02-28T02:19:46;-2.90;99.90
11538;DHT22;50159;49.426;11.182;2023-02-28T02:26:16;-2.90;99.90
11538;DHT22;50159;49.426;11.182;2023-02-28T02:32:39;-2.90;99.90
11538;DHT22;50159;49.426;11.182;2023-02-28T02:41:05;-2.90;99.90
11538;DHT22;50159;49.426;11.182;2023-02-28T02:47:08;-3.00;99.90
11538;DHT22;50159;49.426;11.182;2023-02-28T02:49:42;-2.90;99.90
11538;DHT22;50159;49.426;11.182;2023-02-28T02:52:15;-3.00;99.90
11538;DHT22;50159;49.426;11.182;2023-02-28T02:54:48;-3.00;99.90
11538;DHT22;50159;49.426;11.182;2023-02-28T02:57:29;-3.00;99.90
11538;DHT22;50159;49.426;11.182;2023-02-28T03:00:04;-3.00;99.90
11538;DHT22;50159;49.426;11.182;2023-02-28T03:02:36;-3.00;99.90
11538;DHT22;50159;49.426;11.182;2023-02-28T03:05:09;-3.00;99.90
11538;DHT22;50159;49.426;11.182;2023-02-28T03:07:44;-3.00;99.90
11538;DHT22;50159;49.426;11.182;2023-02-28T03:10:31;-3.00;99.90
11538;DHT22;50159;49.426;11.182;2023-02-28T03:13:37;-3.00;99.90
11538;DHT22;50159;49.426;11.182;2023-02-28T03:22:50;-3.00;99.90
11538;DHT22;50159;49.426;11.182;2023-02-28T03:25:09;-3.10;99.90
11538;DHT22;50159;49.426;11.182;2023-02-28T03:28:00;-3.10;99.90
11538;DHT22;50159;49.426;11.182;2023-02-28T03:30:49;-3.10;99.90
11538;DHT22;50159;49.426;11.182;2023-02-28T03:33:23;-3.10;99.90
11538;DHT22;50159;49.426;11.182;2023-02-28T03:36:13;-3.10;99.90
11538;DHT22;50159;49.426;11.182;2023-02-28T03:38:50;-3.10;99.90
11538;DHT22;50159;49.426;11.182;2023-02-28T03:41:30;-3.10;99.90
11538;DHT22;50159;49.426;11.182;2023-02-28T03:44:25;-3.10;99.90
11538;DHT22;50159;49.426;11.182;2023-02-28T03:47:16;-3.10;99.90
11538;DHT22;50159;49.426;11.182;2023-02-28T03:50:15;-3.10;99.90
11538;DHT22;50159;49.426;11.182;2023-02-28T03:52:48;-3.10;99.90
11538;DHT22;50159;49.426;11.182;2023-02-28T03:55:18;-3.10;99.90
11538;DHT22;50159;49.426;11.182;2023-02-28T04:01:01;-3.10;99.90
11538;DHT22;50159;49.426;11.182;2023-02-28T04:03:38;-3.10;99.90
11538;DHT22;50159;49.426;11.182;2023-02-28T04:06:07;-3.20;99.90
11538;DHT22;50159;49.426;11.182;2023-02-28T04:08:39;-3.10;99.90
11538;DHT22;50159;49.426;11.182;2023-02-28T04:11:34;-3.20;99.90
11538;DHT22;50159;49.426;11.182;2023-02-28T04:14:04;-3.20;99.90
11538;DHT22;50159;49.426;11.182;2023-02-28T04:16:33;-3.20;99.90
11538;DHT22;50159;49.426;11.182;2023-02-28T04:19:05;-3.20;99.90
11538;DHT22;50159;49.426;11.182;2023-02-28T04:21:35;-3.10;99.90
11538;DHT22;50159;49.426;11.182;2023-02-28T04:24:09;-3.20;99.90
11538;DHT22;50159;49.426;11.182;2023-02-28T04:26:43;-3.10;99.90
11538;DHT22;50159;49.426;11.182;2023-02-28T04:29:12;-3.10;99.90
11538;DHT22;50159;49.426;11.182;2023-02-28T04:31:40;-3.10;99.90
11538;DHT22;50159;49.426;11.182;2023-02-28T04:34:07;-3.10;99.90
11538;DHT22;50159;49.426;11.182;2023-02-28T04:36:34;-3.10;99.90
11538;DHT22;50159;49.426;11.182;2023-02-28T04:39:01;-3.10;99.90
11538;DHT22;50159;49.426;11.182;2023-02-28T04:41:28;-3.10;99.90
11538;DHT22;50159;49.426;11.182;2023-02-28T04:43:58;-3.10;99.90
11538;DHT22;50159;49.426;11.182;2023-02-28T04:46:25;-3.10;99.90
11538;DHT22;50159;49.426;11.182;2023-02-28T04:48:52;-3.10;99.90
11538;DHT22;50159;49.426;11.182;2023-02-28T04:51:20;-3.10;99.90
11538;DHT22;50159;49.426;11.182;2023-02-28T04:53:48;-3.10;99.90
11538;DHT22;50159;49.426;11.182;2023-02-28T04:56:16;-3.10;99.90
11538;DHT22;50159;49.426;11.182;2023-02-28T04:58:44;-3.10;99.90
11538;DHT22;50159;49.426;11.182;2023-02-28T05:01:32;-3.10;99.90
11538;DHT22;50159;49.426;11.182;2023-02-28T05:04:01;-3.20;99.90
11538;DHT22;50159;49.426;11.182;2023-02-28T05:06:31;-3.10;99.90
11538;DHT22;50159;49.426;11.182;2023-02-28T05:08:59;-3.20;99.90
11538;DHT22;50159;49.426;11.182;2023-02-28T05:11:32;-3.10;99.90
11538;DHT22;50159;49.426;11.182;2023-02-28T05:14:06;-3.10;99.90
11538;DHT22;50159;49.426;11.182;2023-02-28T05:16:36;-3.10;99.90
11538;DHT22;50159;49.426;11.182;2023-02-28T05:19:03;-3.10;99.90
11538;DHT22;50159;49.426;11.182;2023-02-28T05:21:34;-3.10;99.90
11538;DHT22;50159;49.426;11.182;2023-02-28T05:24:05;-3.20;99.90
11538;DHT22;50159;49.426;11.182;2023-02-28T05:26:36;-3.20;99.90
11538;DHT22;50159;49.426;11.182;2023-02-28T05:29:05;-3.20;99.90
11538;DHT22;50159;49.426;11.182;2023-02-28T05:31:32;-3.20;99.90
11538;DHT22;50159;49.426;11.182;2023-02-28T05:34:00;-3.20;99.90
11538;DHT22;50159;49.426;11.182;2023-02-28T05:36:27;-3.20;99.90
11538;DHT22;50159;49.426;11.182;2023-02-28T05:38:54;-3.20;99.90
11538;DHT22;50159;49.426;11.182;2023-02-28T05:41:21;-3.20;99.90
11538;DHT22;50159;49.426;11.182;2023-02-28T05:43:48;-3.20;99.90
11538;DHT22;50159;49.426;11.182;2023-02-28T05:46:15;-3.20;99.90
11538;DHT22;50159;49.426;11.182;2023-02-28T05:48:46;-3.20;99.90
11538;DHT22;50159;49.426;11.182;2023-02-28T05:51:14;-3.30;99.90
11538;DHT22;50159;49.426;11.182;2023-02-28T05:53:41;-3.30;99.90
11538;DHT22;50159;49.426;11.182;2023-02-28T05:56:08;-3.30;99.90
11538;DHT22;50159;49.426;11.182;2023-02-28T05:58:35;-3.30;99.90
11538;DHT22;50159;49.426;11.182;2023-02-28T06:01:20;-3.40;99.90
11538;DHT22;50159;49.426;11.182;2023-02-28T06:03:57;-3.30;99.90
11538;DHT22;50159;49.426;11.182;2023-02-28T06:06:25;-3.30;99.90
11538;DHT22;50159;49.426;11.182;2023-02-28T06:08:52;-3.30;99.90
11538;DHT22;50159;49.426;11.182;2023-02-28T06:11:18;-3.30;99.90
11538;DHT22;50159;49.426;11.182;2023-02-28T06:13:47;-3.30;99.90
11538;DHT22;50159;49.426;11.182;2023-02-28T06:16:13;-3.30;99.90
11538;DHT22;50159;49.426;11.182;2023-02-28T06:18:40;-3.30;99.90
11538;DHT22;50159;49.426;11.182;2023-02-28T06:21:07;-3.30;99.90
11538;DHT22;50159;49.426;11.182;2023-02-28T06:23:35;-3.20;99.90
11538;DHT22;50159;49.426;11.182;2023-02-28T06:26:02;-3.20;99.90
11538;DHT22;50159;49.426;11.182;2023-02-28T06:28:28;-3.10;99.90
11538;DHT22;50159;49.426;11.182;2023-02-28T06:30:55;-3.10;99.90
11538;DHT22;50159;49.426;11.182;2023-02-28T06:33:22;-3.00;99.90
11538;DHT22;50159;49.426;11.182;2023-02-28T06:35:52;-3.00;99.90
11538;DHT22;50159;49.426;11.182;2023-02-28T06:38:19;-2.90;99.90
11538;DHT22;50159;49.426;11.182;2023-02-28T06:40:53;-2.90;99.90
11538;DHT22;50159;49.426;11.182;2023-02-28T06:43:22;-2.80;99.90
11538;DHT22;50159;49.426;11.182;2023-02-28T06:45:50;-2.80;99.90
11538;DHT22;50159;49.426;11.182;2023-02-28T06:48:20;-2.70;99.90
11538;DHT22;50159;49.426;11.182;2023-02-28T06:50:47;-2.60;99.90
11538;DHT22;50159;49.426;11.182;2023-02-28T06:53:13;-2.50;99.90
11538;DHT22;50159;49.426;11.182;2023-02-28T06:55:41;-2.40;99.90
11538;DHT22;50159;49.426;11.182;2023-02-28T06:58:08;-2.40;99.90
11538;DHT22;50159;49.426;11.182;2023-02-28T07:00:41;-2.20;99.90
11538;DHT22;50159;49.426;11.182;2023-02-28T07:03:09;-2.10;99.90
11538;DHT22;50159;49.426;11.182;2023-02-28T07:05:37;-2.00;99.90
11538;DHT22;50159;49.426;11.182;2023-02-28T07:08:06;-1.90;99.90
11538;DHT22;50159;49.426;11.182;2023-02-28T07:10:33;-1.70;99.90
11538;DHT22;50159;49.426;11.182;2023-02-28T07:13:00;-1.60;99.90
11538;DHT22;50159;49.426;11.182;2023-02-28T07:15:27;-1.50;99.90
11538;DHT22;50159;49.426;11.182;2023-02-28T07:17:54;-1.40;99.90
11538;DHT22;50159;49.426;11.182;2023-02-28T07:20:20;-1.20;99.90
11538;DHT22;50159;49.426;11.182;2023-02-28T07:22:47;-1.10;99.90
11538;DHT22;50159;49.426;11.182;2023-02-28T07:25:26;-1.00;99.90
11538;DHT22;50159;49.426;11.182;2023-02-28T07:27:55;-0.80;99.90
11538;DHT22;50159;49.426;11.182;2023-02-28T07:30:22;-0.70;99.90
11538;DHT22;50159;49.426;11.182;2023-02-28T07:32:49;-0.50;99.90
11538;DHT22;50159;49.426;11.182;2023-02-28T07:35:16;-0.40;99.40
11538;DHT22;50159;49.426;11.182;2023-02-28T07:37:43;-0.30;98.70
11538;DHT22;50159;49.426;11.182;2023-02-28T07:40:11;-0.20;98.00
11538;DHT22;50159;49.426;11.182;2023-02-28T07:42:39;0.00;97.40
11538;DHT22;50159;49.426;11.182;2023-02-28T07:45:08;0.10;96.10
11538;DHT22;50159;49.426;11.182;2023-02-28T07:47:38;0.10;95.50
11538;DHT22;50159;49.426;11.182;2023-02-28T07:50:06;0.10;95.00
11538;DHT22;50159;49.426;11.182;2023-02-28T07:52:36;0.10;94.80
11538;DHT22;50159;49.426;11.182;2023-02-28T07:55:05;0.20;94.70
11538;DHT22;50159;49.426;11.182;2023-02-28T07:57:33;0.30;94.50
11538;DHT22;50159;49.426;11.182;2023-02-28T08:00:01;0.50;94.60
11538;DHT22;50159;49.426;11.182;2023-02-28T08:02:29;0.70;94.80
11538;DHT22;50159;49.426;11.182;2023-02-28T08:04:56;1.00;93.90
11538;DHT22;50159;49.426;11.182;2023-02-28T08:07:23;1.40;93.00
11538;DHT22;50159;49.426;11.182;2023-02-28T08:09:50;1.60;91.20
11538;DHT22;50159;49.426;11.182;2023-02-28T08:12:16;1.80;90.20
11538;DHT22;50159;49.426;11.182;2023-02-28T08:14:43;1.90;87.70
11538;DHT22;50159;49.426;11.182;2023-02-28T08:17:10;1.90;87.60
11538;DHT22;50159;49.426;11.182;2023-02-28T08:19:38;2.00;84.80
11538;DHT22;50159;49.426;11.182;2023-02-28T08:22:05;1.80;81.40
11538;DHT22;50159;49.426;11.182;2023-02-28T08:24:31;1.80;83.30
11538;DHT22;50159;49.426;11.182;2023-02-28T08:26:59;1.80;82.00
11538;DHT22;50159;49.426;11.182;2023-02-28T08:29:26;1.30;80.30
11538;DHT22;50159;49.426;11.182;2023-02-28T08:31:53;1.70;81.50
11538;DHT22;50159;49.426;11.182;2023-02-28T08:34:20;1.90;81.50
11538;DHT22;50159;49.426;11.182;2023-02-28T08:36:47;2.10;80.30
11538;DHT22;50159;49.426;11.182;2023-02-28T08:39:14;2.30;80.10
11538;DHT22;50159;49.426;11.182;2023-02-28T08:41:42;2.40;77.30
11538;DHT22;50159;49.426;11.182;2023-02-28T08:44:10;2.50;75.90
11538;DHT22;50159;49.426;11.182;2023-02-28T08:46:37;2.70;75.90
11538;DHT22;50159;49.426;11.182;2023-02-28T08:49:04;2.80;73.50
11538;DHT22;50159;49.426;11.182;2023-02-28T08:51:31;2.80;73.20
11538;DHT22;50159;49.426;11.182;2023-02-28T08:53:59;2.80;71.00
11538;DHT22;50159;49.426;11.182;2023-02-28T08:56:27;2.70;71.50
11538;DHT22;50159;49.426;11.182;2023-02-28T08:58:56;2.70;69.70
11538;DHT22;50159;49.426;11.182;2023-02-28T09:01:28;2.70;69.90
11538;DHT22;50159;49.426;11.182;2023-02-28T09:03:57;2.70;69.70
11538;DHT22;50159;49.426;11.182;2023-02-28T09:06:26;2.70;70.20
11538;DHT22;50159;49.426;11.182;2023-02-28T09:08:57;2.80;70.40
11538;DHT22;50159;49.426;11.182;2023-02-28T09:11:25;3.00;69.30
11538;DHT22;50159;49.426;11.182;2023-02-28T09:13:52;3.20;67.50
11538;DHT22;50159;49.426;11.182;2023-02-28T09:16:19;3.50;69.40
11538;DHT22;50159;49.426;11.182;2023-02-28T09:18:46;3.80;66.70
11538;DHT22;50159;49.426;11.182;2023-02-28T09:21:15;4.10;66.10
11538;DHT22;50159;49.426;11.182;2023-02-28T09:23:44;4.20;63.50
11538;DHT22;50159;49.426;11.182;2023-02-28T09:26:24;4.30;61.60
11538;DHT22;50159;49.426;11.182;2023-02-28T09:29:04;4.50;60.30
11538;DHT22;50159;49.426;11.182;2023-02-28T09:31:31;4.50;57.60
11538;DHT22;50159;49.426;11.182;2023-02-28T09:33:58;4.60;58.60
11538;DHT22;50159;49.426;11.182;2023-02-28T09:36:27;4.70;57.70
11538;DHT22;50159;49.426;11.182;2023-02-28T09:39:09;4.70;56.50
11538;DHT22;50159;49.426;11.182;2023-02-28T09:41:39;4.70;55.40
11538;DHT22;50159;49.426;11.182;2023-02-28T09:44:39;4.60;56.90
11538;DHT22;50159;49.426;11.182;2023-02-28T09:47:31;4.70;57.00
11538;DHT22;50159;49.426;11.182;2023-02-28T09:50:17;4.80;55.00
11538;DHT22;50159;49.426;11.182;2023-02-28T09:53:02;4.80;54.30
11538;DHT22;50159;49.426;11.182;2023-02-28T09:55:44;4.90;55.00
11538;DHT22;50159;49.426;11.182;2023-02-28T09:58:26;5.00;55.00
11538;DHT22;50159;49.426;11.182;2023-02-28T10:01:01;5.10;53.80
11538;DHT22;50159;49.426;11.182;2023-02-28T10:03:43;5.10;53.60
11538;DHT22;50159;49.426;11.182;2023-02-28T10:06:20;5.20;54.30
11538;DHT22;50159;49.426;11.182;2023-02-28T10:09:29;5.20;53.40
11538;DHT22;50159;49.426;11.182;2023-02-28T10:12:04;5.20;53.00
11538;DHT22;50159;49.426;11.182;2023-02-28T10:14:33;5.20;53.70
11538;DHT22;50159;49.426;11.182;2023-02-28T10:17:17;5.40;53.70
11538;DHT22;50159;49.426;11.182;2023-02-28T10:20:00;5.50;52.20
11538;DHT22;50159;49.426;11.182;2023-02-28T10:23:03;5.50;51.90
11538;DHT22;50159;49.426;11.182;2023-02-28T10:26:00;5.30;51.40
11538;DHT22;50159;49.426;11.182;2023-02-28T10:28:31;4.90;51.70
11538;DHT22;50159;49.426;11.182;2023-02-28T10:30:58;5.00;53.50
11538;DHT22;50159;49.426;11.182;2023-02-28T10:33:33;5.30;53.80
11538;DHT22;50159;49.426;11.182;2023-02-28T10:36:03;5.60;52.20
11538;DHT22;50159;49.426;11.182;2023-02-28T10:38:38;6.00;50.60
11538;DHT22;50159;49.426;11.182;2023-02-28T10:41:09;6.10;50.60
11538;DHT22;50159;49.426;11.182;2023-02-28T10:43:44;6.50;50.70
11538;DHT22;50159;49.426;11.182;2023-02-28T10:46:16;6.70;48.30
11538;DHT22;50159;49.426;11.182;2023-02-28T10:49:11;6.70;47.60
11538;DHT22;50159;49.426;11.182;2023-02-28T10:51:41;6.70;49.70
11538;DHT22;50159;49.426;11.182;2023-02-28T10:54:33;6.70;47.90
11538;DHT22;50159;49.426;11.182;2023-02-28T10:59:46;7.20;48.50
11538;DHT22;50159;49.426;11.182;2023-02-28T11:02:36;7.30;46.30
11538;DHT22;50159;49.426;11.182;2023-02-28T11:05:33;7.60;48.00
11538;DHT22;50159;49.426;11.182;2023-02-28T11:08:12;7.80;45.30
11538;DHT22;50159;49.426;11.182;2023-02-28T11:10:53;7.60;44.70
11538;DHT22;50159;49.426;11.182;2023-02-28T11:13:26;7.50;44.60
11538;DHT22;50159;49.426;11.182;2023-02-28T11:15:59;7.50;45.90
11538;DHT22;50159;49.426;11.182;2023-02-28T11:18:47;7.60;46.00
11538;DHT22;50159;49.426;11.182;2023-02-28T11:21:25;7.60;44.60
11538;DHT22;50159;49.426;11.182;2023-02-28T11:24:02;7.60;45.80
11538;DHT22;50159;49.426;11.182;2023-02-28T11:26:44;7.70;45.40
11538;DHT22;50159;49.426;11.182;2023-02-28T11:29:26;7.60;45.10
11538;DHT22;50159;49.426;11.182;2023-02-28T11:34:45;7.40;44.70
11538;DHT22;50159;49.426;11.182;2023-02-28T11:37:16;7.20;44.70
11538;DHT22;50159;49.426;11.182;2023-02-28T11:39:45;7.50;45.80
11538;DHT22;50159;49.426;11.182;2023-02-28T11:42:29;7.10;45.90
11538;DHT22;50159;49.426;11.182;2023-02-28T11:50:51;7.40;46.20
11538;DHT22;50159;49.426;11.182;2023-02-28T11:54:09;7.60;44.60
11538;DHT22;50159;49.426;11.182;2023-02-28T11:56:57;7.80;45.30
11538;DHT22;50159;49.426;11.182;2023-02-28T12:08:15;8.60;42.70
11538;DHT22;50159;49.426;11.182;2023-02-28T12:16:59;8.70;40.70
11538;DHT22;50159;49.426;11.182;2023-02-28T12:28:02;8.90;40.70
11538;DHT22;50159;49.426;11.182;2023-02-28T12:30:35;8.80;41.00
11538;DHT22;50159;49.426;11.182;2023-02-28T12:33:16;8.90;41.40
11538;DHT22;50159;49.426;11.182;2023-02-28T12:35:54;8.90;40.80
11538;DHT22;50159;49.426;11.182;2023-02-28T12:41:05;9.30;40.00
11538;DHT22;50159;49.426;11.182;2023-02-28T12:44:02;9.50;41.40
11538;DHT22;50159;49.426;11.182;2023-02-28T12:46:41;9.60;40.60
11538;DHT22;50159;49.426;11.182;2023-02-28T12:49:22;9.70;40.60
11538;DHT22;50159;49.426;11.182;2023-02-28T12:51:53;10.10;40.60
11538;DHT22;50159;49.426;11.182;2023-02-28T12:54:32;10.00;37.70
11538;DHT22;50159;49.426;11.182;2023-02-28T12:57:32;9.70;38.20
11538;DHT22;50159;49.426;11.182;2023-02-28T13:00:11;9.30;39.30
11538;DHT22;50159;49.426;11.182;2023-02-28T13:09:17;9.30;40.20
11538;DHT22;50159;49.426;11.182;2023-02-28T13:11:52;9.30;39.30
11538;DHT22;50159;49.426;11.182;2023-02-28T13:14:36;9.40;39.90
11538;DHT22;50159;49.426;11.182;2023-02-28T13:19:36;9.40;39.20
11538;DHT22;50159;49.426;11.182;2023-02-28T13:24:53;9.30;39.70
11538;DHT22;50159;49.426;11.182;2023-02-28T13:29:52;9.40;40.20
11538;DHT22;50159;49.426;11.182;2023-02-28T13:32:31;9.70;40.80
11538;DHT22;50159;49.426;11.182;2023-02-28T13:39:57;10.30;38.20
11538;DHT22;50159;49.426;11.182;2023-02-28T13:42:47;10.30;36.40
11538;DHT22;50159;49.426;11.182;2023-02-28T13:48:00;9.90;37.90
11538;DHT22;50159;49.426;11.182;2023-02-28T13:50:36;10.00;38.00
11538;DHT22;50159;49.426;11.182;2023-02-28T14:05:19;10.50;36.70
11538;DHT22;50159;49.426;11.182;2023-02-28T14:08:02;10.50;37.20
11538;DHT22;50159;49.426;11.182;2023-02-28T14:10:44;11.00;37.80
11538;DHT22;50159;49.426;11.182;2023-02-28T14:15:46;13.40;35.40
11538;DHT22;50159;49.426;11.182;2023-02-28T14:18:17;16.10;32.00
11538;DHT22;50159;49.426;11.182;2023-02-28T14:24:06;19.60;26.70
11538;DHT22;50159;49.426;11.182;2023-02-28T14:38:58;21.60;23.10
11538;DHT22;50159;49.426;11.182;2023-02-28T14:41:33;20.80;23.90
11538;DHT22;50159;49.426;11.182;2023-02-28T14:46:53;21.10;22.60
11538;DHT22;50159;49.426;11.182;2023-02-28T14:49:27;21.70;23.30
11538;DHT22;50159;49.426;11.182;2023-02-28T14:52:10;21.80;21.50
11538;DHT22;50159;49.426;11.182;2023-02-28T14:54:41;21.40;21.70
11538;DHT22;50159;49.426;11.182;2023-02-28T15:00:22;21.50;22.90
11538;DHT22;50159;49.426;11.182;2023-02-28T15:02:53;21.80;21.20
11538;DHT22;50159;49.426;11.182;2023-02-28T15:05:30;21.20;21.30
11538;DHT22;50159;49.426;11.182;2023-02-28T15:08:17;20.00;22.20
11538;DHT22;50159;49.426;11.182;2023-02-28T15:10:59;18.90;23.40
11538;DHT22;50159;49.426;11.182;2023-02-28T15:13:48;18.30;24.60
11538;DHT22;50159;49.426;11.182;2023-02-28T15:19:00;17.20;24.40
11538;DHT22;50159;49.426;11.182;2023-02-28T15:21:33;16.30;25.10
11538;DHT22;50159;49.426;11.182;2023-02-28T15:24:13;15.60;25.90
11538;DHT22;50159;49.426;11.182;2023-02-28T15:27:02;14.50;27.10
11538;DHT22;50159;49.426;11.182;2023-02-28T15:32:37;11.10;30.30
11538;DHT22;50159;49.426;11.182;2023-02-28T15:38:15;8.80;36.20
11538;DHT22;50159;49.426;11.182;2023-02-28T15:40:50;8.00;38.30
11538;DHT22;50159;49.426;11.182;2023-02-28T15:43:32;7.40;39.70
11538;DHT22;50159;49.426;11.182;2023-02-28T15:46:02;7.20;41.00
11538;DHT22;50159;49.426;11.182;2023-02-28T15:51:22;7.60;41.60
11538;DHT22;50159;49.426;11.182;2023-02-28T15:54:06;7.90;40.90
11538;DHT22;50159;49.426;11.182;2023-02-28T15:56:42;8.30;40.00
11538;DHT22;50159;49.426;11.182;2023-02-28T15:59:18;8.40;39.20
11538;DHT22;50159;49.426;11.182;2023-02-28T16:02:18;8.40;39.50
11538;DHT22;50159;49.426;11.182;2023-02-28T16:05:19;8.40;39.90
11538;DHT22;50159;49.426;11.182;2023-02-28T16:07:48;8.00;39.80
11538;DHT22;50159;49.426;11.182;2023-02-28T16:10:15;7.40;40.50
11538;DHT22;50159;49.426;11.182;2023-02-28T16:12:42;6.80;41.70
11538;DHT22;50159;49.426;11.182;2023-02-28T16:15:18;6.50;42.90
11538;DHT22;50159;49.426;11.182;2023-02-28T16:17:53;6.20;43.80
11538;DHT22;50159;49.426;11.182;2023-02-28T16:20:22;5.90;44.40
11538;DHT22;50159;49.426;11.182;2023-02-28T16:22:54;5.60;45.10
11538;DHT22;50159;49.426;11.182;2023-02-28T16:25:25;5.30;45.80
11538;DHT22;50159;49.426;11.182;2023-02-28T16:27:59;5.00;46.50
11538;DHT22;50159;49.426;11.182;2023-02-28T16:30:28;4.70;47.20
11538;DHT22;50159;49.426;11.182;2023-02-28T16:32:59;4.60;48.20
11538;DHT22;50159;49.426;11.182;2023-02-28T16:35:26;4.40;48.70
11538;DHT22;50159;49.426;11.182;2023-02-28T16:37:53;4.20;49.10
11538;DHT22;50159;49.426;11.182;2023-02-28T16:40:23;4.10;49.40
11538;DHT22;50159;49.426;11.182;2023-02-28T16:42:54;4.00;50.00
11538;DHT22;50159;49.426;11.182;2023-02-28T16:45:27;3.90;50.50
11538;DHT22;50159;49.426;11.182;2023-02-28T16:47:55;3.80;50.60
11538;DHT22;50159;49.426;11.182;2023-02-28T16:50:28;3.80;51.10
11538;DHT22;50159;49.426;11.182;2023-02-28T16:52:56;3.70;51.30
11538;DHT22;50159;49.426;11.182;2023-02-28T16:55:24;3.60;51.80
11538;DHT22;50159;49.426;11.182;2023-02-28T16:57:58;3.50;52.10
11538;DHT22;50159;49.426;11.182;2023-02-28T17:00:27;3.50;52.60
11538;DHT22;50159;49.426;11.182;2023-02-28T17:02:56;3.40;52.90
11538;DHT22;50159;49.426;11.182;2023-02-28T17:05:23;3.40;53.40
11538;DHT22;50159;49.426;11.182;2023-02-28T17:07:51;3.40;54.00
11538;DHT22;50159;49.426;11.182;2023-02-28T17:10:19;3.30;54.40
11538;DHT22;50159;49.426;11.182;2023-02-28T17:12:49;3.20;54.20
11538;DHT22;50159;49.426;11.182;2023-02-28T17:15:19;3.10;54.60
11538;DHT22;50159;49.426;11.182;2023-02-28T17:17:47;3.00;54.90
11538;DHT22;50159;49.426;11.182;2023-02-28T17:20:21;2.90;55.20
11538;DHT22;50159;49.426;11.182;2023-02-28T17:22:53;2.90;55.70
11538;DHT22;50159;49.426;11.182;2023-02-28T17:25:21;2.80;55.90
11538;DHT22;50159;49.426;11.182;2023-02-28T17:27:49;2.70;56.10
11538;DHT22;50159;49.426;11.182;2023-02-28T17:30:23;2.60;56.30
11538;DHT22;50159;49.426;11.182;2023-02-28T17:32:54;2.50;56.90
11538;DHT22;50159;49.426;11.182;2023-02-28T17:35:23;2.40;56.80
11538;DHT22;50159;49.426;11.182;2023-02-28T17:37:50;2.30;57.50
11538;DHT22;50159;49.426;11.182;2023-02-28T17:40:23;2.20;57.80
11538;DHT22;50159;49.426;11.182;2023-02-28T17:42:50;2.20;58.00
11538;DHT22;50159;49.426;11.182;2023-02-28T17:45:19;2.10;58.10
11538;DHT22;50159;49.426;11.182;2023-02-28T17:47:47;2.00;58.20
11538;DHT22;50159;49.426;11.182;2023-02-28T17:50:19;1.90;58.60
11538;DHT22;50159;49.426;11.182;2023-02-28T17:52:47;1.80;59.00
11538;DHT22;50159;49.426;11.182;2023-02-28T17:55:16;1.70;59.30
11538;DHT22;50159;49.426;11.182;2023-02-28T17:57:45;1.70;59.90
11538;DHT22;50159;49.426;11.182;2023-02-28T18:00:14;1.60;60.10
11538;DHT22;50159;49.426;11.182;2023-02-28T18:02:42;1.50;60.30
11538;DHT22;50159;49.426;11.182;2023-02-28T18:05:10;1.50;60.70
11538;DHT22;50159;49.426;11.182;2023-02-28T18:07:38;1.40;60.80
11538;DHT22;50159;49.426;11.182;2023-02-28T18:10:10;1.30;61.40
11538;DHT22;50159;49.426;11.182;2023-02-28T18:12:41;1.30;61.90
11538;DHT22;50159;49.426;11.182;2023-02-28T18:15:09;1.20;62.00
11538;DHT22;50159;49.426;11.182;2023-02-28T18:17:36;1.10;62.00